Vista Mar, Puerto Rico
Current Conditions -  °F | °C
As of 6:50 AM on Saturday 22 Nov 2014 (Local Time) from TJBQ Reporting Station
Scattered Clouds Scattered Clouds  
Wind Chill: 24°   Ceiling: Unl
Heat Index: 24°   Visibility: 10mi
Dew Point: 22°   Wind: 12mph
Humidity: 89%   Direction: 100°E
Pressure: 30.01"   Gusts: NA
Location:  17.9714°N, 66.9064°W
Report Text: TJBQ 221050Z 10010KT 10SM SCT075 24/22 A3001 RMK RWY08 ATIS N
Loading
Personal Weather Stations






























Interactive Weather Map New forecast layout! Learn more

10-Day Weather Forecast

Advertisements
Track Severe Weather on mobile